Kerteminde, Denmark
Current Conditions -  °F | °C
As of 12:50 PM on Friday 24 Oct 2014 (Local Time) from EKOD Reporting Station
Broken Clouds Broken Clouds  
Wind Chill: 52°   Ceiling: 2000
Heat Index: 52°   Visibility: 6mi
Dew Point: 48°   Wind: 17mph
Humidity: 88%   Direction: 190°S
Pressure: 30.06"   Gusts: NA
Location:  55.45°N, 10.66°E
Report Text: EKOD 241050Z 19015KT 9999 SCT011 BKN020 11/09 Q1018
Loading
Personal Weather Stations






























Interactive Weather Map
Tropical Storm Tracking
New forecast layout! Learn more

10-Day Weather Forecast

Advertisements
Track Severe Weather on mobile